createdAt,value
2017-08-16T00:02:13.190Z,7.03
2017-08-16T00:04:39.462Z,7.90
2017-08-16T00:07:05.757Z,9.20
2017-08-16T00:09:32.042Z,7.00
2017-08-16T00:11:58.340Z,7.97
2017-08-16T00:14:25.234Z,7.53
2017-08-16T00:16:52.322Z,8.00
2017-08-16T00:19:18.594Z,7.30
2017-08-16T00:21:44.877Z,7.57
2017-08-16T00:24:11.120Z,11.17
2017-08-16T00:26:37.418Z,7.67
2017-08-16T00:29:03.718Z,7.40
2017-08-16T00:31:30.411Z,9.10
2017-08-16T00:33:56.687Z,8.37
2017-08-16T00:36:24.782Z,8.40
2017-08-16T00:38:52.658Z,9.43
2017-08-16T00:41:18.972Z,8.27
2017-08-16T00:43:45.286Z,7.87
2017-08-16T00:46:12.538Z,8.07
2017-08-16T00:48:39.529Z,9.33
2017-08-16T00:51:08.823Z,9.83
2017-08-16T00:53:35.114Z,10.90
2017-08-16T00:56:01.429Z,10.83
2017-08-16T00:58:28.946Z,12.50
2017-08-16T01:00:55.261Z,11.90
2017-08-16T01:03:23.733Z,10.90
2017-08-16T01:05:51.651Z,11.37
2017-08-16T01:08:18.272Z,12.07
2017-08-16T01:10:46.542Z,12.17
2017-08-16T01:13:13.460Z,9.00
2017-08-16T01:15:41.250Z,10.80
2017-08-16T01:18:09.154Z,8.10
2017-08-16T01:20:36.452Z,6.13
2017-08-16T01:23:02.749Z,6.13
2017-08-16T01:25:30.005Z,6.23
2017-08-16T01:27:56.274Z,6.67
2017-08-16T01:30:22.610Z,8.07
2017-08-16T01:32:48.883Z,6.30
2017-08-16T01:35:15.164Z,6.13
2017-08-16T01:37:41.428Z,6.83
2017-08-16T01:40:08.116Z,6.73
2017-08-16T01:42:34.387Z,5.37
2017-08-16T01:45:00.949Z,8.00
2017-08-16T01:47:27.200Z,5.57
2017-08-16T01:49:53.468Z,6.97
2017-08-16T01:52:19.750Z,8.60
2017-08-16T01:54:46.044Z,7.17
2017-08-16T01:57:12.277Z,5.27
2017-08-16T01:59:38.910Z,6.10
2017-08-16T02:02:05.519Z,5.17
2017-08-16T02:04:31.742Z,7.93
2017-08-16T02:06:57.981Z,5.27
2017-08-16T02:09:24.202Z,5.03
2017-08-16T02:11:50.420Z,5.20
2017-08-16T02:14:17.587Z,5.90
2017-08-16T02:16:43.826Z,5.30
2017-08-16T02:19:10.067Z,6.10
2017-08-16T02:21:36.296Z,5.37
2017-08-16T02:24:02.557Z,5.47
2017-08-16T02:26:28.847Z,5.63
2017-08-16T02:28:55.506Z,7.27
2017-08-16T02:31:22.071Z,6.43
2017-08-16T02:33:48.341Z,7.27
2017-08-16T02:36:14.619Z,5.73
2017-08-16T02:38:40.910Z,8.40
2017-08-16T02:41:07.177Z,7.17
2017-08-16T02:43:33.448Z,6.30
2017-08-16T02:45:59.723Z,5.50
2017-08-16T02:48:25.993Z,6.10
2017-08-16T02:50:52.275Z,6.00
2017-08-16T02:53:18.593Z,5.33
2017-08-16T02:55:45.305Z,5.47
2017-08-16T02:58:11.612Z,6.23
2017-08-16T03:00:38.759Z,8.17
2017-08-16T03:03:05.054Z,5.07
2017-08-16T03:05:31.350Z,5.20
2017-08-16T03:07:57.644Z,5.20
2017-08-16T03:10:23.954Z,7.10
2017-08-16T03:12:50.258Z,10.20
2017-08-16T03:15:16.545Z,5.40
2017-08-16T03:17:43.205Z,7.47
2017-08-16T03:20:09.478Z,5.87
2017-08-16T03:22:35.792Z,5.43
2017-08-16T03:25:02.118Z,7.03
2017-08-16T03:27:28.477Z,6.70
2017-08-16T03:29:54.765Z,6.67
2017-08-16T03:32:21.377Z,6.07
2017-08-16T03:34:47.680Z,5.70
2017-08-16T03:37:13.969Z,6.50
2017-08-16T03:39:40.681Z,7.93
2017-08-16T03:42:06.983Z,11.77
2017-08-16T03:44:33.310Z,6.80
2017-08-16T03:46:59.614Z,6.70
2017-08-16T03:49:25.925Z,6.33
2017-08-16T03:51:52.229Z,5.23
2017-08-16T03:54:18.887Z,5.83
2017-08-16T03:56:45.204Z,6.03
2017-08-16T03:59:11.484Z,5.63
2017-08-16T04:01:37.774Z,6.13
2017-08-16T04:04:04.086Z,5.60
2017-08-16T04:06:30.432Z,7.10
2017-08-16T04:08:56.741Z,7.37
2017-08-16T04:11:23.058Z,6.30
2017-08-16T04:13:49.347Z,8.93
2017-08-16T04:16:15.968Z,6.00
2017-08-16T04:18:42.258Z,8.43
2017-08-16T04:21:08.560Z,6.30
2017-08-16T04:23:34.883Z,5.43
2017-08-16T04:26:01.174Z,6.80
2017-08-16T04:28:27.495Z,6.93
2017-08-16T04:30:53.815Z,6.90
2017-08-16T04:33:20.871Z,7.70
2017-08-16T04:35:47.142Z,6.57
2017-08-16T04:38:13.471Z,7.80
2017-08-16T04:40:39.788Z,7.80
2017-08-16T04:43:06.500Z,6.37
2017-08-16T04:45:32.851Z,6.77
2017-08-16T04:47:59.538Z,7.80
2017-08-16T04:50:25.845Z,7.30
2017-08-16T04:52:52.460Z,6.93
2017-08-16T04:55:18.794Z,7.37
2017-08-16T04:57:45.462Z,7.80
2017-08-16T05:00:11.777Z,8.93
2017-08-16T05:02:38.125Z,7.70
2017-08-16T05:05:04.454Z,7.23
2017-08-16T05:07:30.789Z,7.40
2017-08-16T05:09:57.115Z,8.17
2017-08-16T05:12:23.410Z,8.50
2017-08-16T05:14:50.117Z,7.43
2017-08-16T05:17:16.410Z,6.90
2017-08-16T05:19:42.752Z,6.87
2017-08-16T05:22:09.063Z,7.90
2017-08-16T05:24:35.416Z,6.97
2017-08-16T05:27:01.720Z,6.63
2017-08-16T05:29:28.061Z,8.50
2017-08-16T05:31:54.363Z,7.27
2017-08-16T05:34:20.715Z,8.63
2017-08-16T05:36:47.067Z,8.43
2017-08-16T05:39:13.410Z,7.07
2017-08-16T05:41:39.704Z,6.90
2017-08-16T05:44:06.038Z,7.63
2017-08-16T05:46:32.349Z,8.40
2017-08-16T05:48:58.636Z,8.03
2017-08-16T05:51:24.926Z,7.87
2017-08-16T05:53:51.191Z,7.83
2017-08-16T05:56:17.494Z,7.17
2017-08-16T05:58:43.788Z,7.70
2017-08-16T06:01:10.451Z,9.13
2017-08-16T06:03:36.733Z,8.23
2017-08-16T06:06:03.034Z,6.70
2017-08-16T06:08:29.319Z,11.40
2017-08-16T06:10:55.612Z,6.90
2017-08-16T06:13:21.930Z,6.83
2017-08-16T06:15:48.871Z,7.60
2017-08-16T06:18:15.186Z,6.80
2017-08-16T06:20:41.425Z,8.27
2017-08-16T06:23:08.450Z,7.23
2017-08-16T06:25:34.696Z,7.33
2017-08-16T06:28:01.294Z,7.43
2017-08-16T06:30:27.549Z,11.80
2017-08-16T06:32:53.826Z,6.50
2017-08-16T06:35:20.159Z,8.03
2017-08-16T06:37:46.453Z,9.00
2017-08-16T06:40:13.435Z,7.60
2017-08-16T06:42:39.723Z,9.63
2017-08-16T06:45:06.029Z,6.30
2017-08-16T06:47:32.656Z,7.03
2017-08-16T06:49:59.329Z,7.10
2017-08-16T06:52:25.616Z,10.20
2017-08-16T06:54:53.854Z,6.10
2017-08-16T06:57:21.875Z,6.83
2017-08-16T06:59:49.767Z,8.37
2017-08-16T07:02:17.001Z,8.20
2017-08-16T07:04:45.750Z,8.53
2017-08-16T07:07:12.041Z,9.80
2017-08-16T07:09:39.959Z,8.97
2017-08-16T07:12:06.287Z,9.87
2017-08-16T07:14:34.193Z,10.80
2017-08-16T07:17:01.558Z,8.40
2017-08-16T07:19:32.540Z,9.40
2017-08-16T07:21:59.835Z,8.87
2017-08-16T07:24:26.174Z,7.97
2017-08-16T07:26:53.425Z,8.27
2017-08-16T07:29:22.459Z,8.47
2017-08-16T07:31:48.771Z,8.43
2017-08-16T07:34:15.984Z,9.60
2017-08-16T07:36:42.330Z,8.97
2017-08-16T07:39:08.987Z,8.23
2017-08-16T07:41:36.732Z,7.47
2017-08-16T07:44:05.153Z,6.93
2017-08-16T07:46:32.279Z,6.50
2017-08-16T07:48:59.215Z,5.93
2017-08-16T07:51:29.081Z,7.03
2017-08-16T07:53:55.375Z,6.40
2017-08-16T07:56:21.689Z,5.53
2017-08-16T07:58:51.007Z,7.00
2017-08-16T08:01:17.303Z,6.90
2017-08-16T08:03:44.407Z,7.03
2017-08-16T08:06:11.595Z,7.43
2017-08-16T08:08:37.917Z,6.83
2017-08-16T08:11:05.149Z,6.43
2017-08-16T08:13:31.463Z,4.97
2017-08-16T08:15:57.767Z,6.07
2017-08-16T08:18:24.095Z,6.57
2017-08-16T08:20:53.411Z,6.33
2017-08-16T08:23:20.561Z,5.87
2017-08-16T08:25:46.865Z,6.23
2017-08-16T08:28:13.514Z,6.53
2017-08-16T08:30:39.833Z,7.53
2017-08-16T08:33:06.140Z,7.27
2017-08-16T08:35:33.785Z,6.60
2017-08-16T08:38:00.478Z,6.33
2017-08-16T08:40:26.811Z,11.73
2017-08-16T08:42:53.125Z,5.90
2017-08-16T08:45:19.482Z,7.63
2017-08-16T08:47:45.914Z,7.03
2017-08-16T08:50:13.062Z,6.57
2017-08-16T08:52:39.376Z,6.47
2017-08-16T08:55:06.193Z,5.97
2017-08-16T08:57:32.497Z,6.27
2017-08-16T08:59:59.191Z,5.30
2017-08-16T09:02:25.490Z,5.23
2017-08-16T09:04:51.785Z,8.33
2017-08-16T09:07:18.090Z,5.10
2017-08-16T09:09:44.403Z,8.83
2017-08-16T09:12:10.717Z,5.10
2017-08-16T09:14:37.006Z,5.47
2017-08-16T09:17:03.342Z,5.43
2017-08-16T09:19:29.669Z,7.00
2017-08-16T09:21:55.991Z,5.70
2017-08-16T09:24:22.348Z,6.23
2017-08-16T09:26:48.655Z,5.00
2017-08-16T09:29:14.973Z,6.27
2017-08-16T09:31:41.336Z,8.43
2017-08-16T09:34:08.055Z,5.33
2017-08-16T09:36:34.349Z,5.10
2017-08-16T09:39:00.700Z,5.13
2017-08-16T09:41:27.107Z,5.57
2017-08-16T09:43:53.810Z,5.33
2017-08-16T09:46:20.133Z,4.87
2017-08-16T09:48:46.426Z,4.77
2017-08-16T09:51:12.754Z,4.23
2017-08-16T09:53:39.069Z,4.30
2017-08-16T09:56:05.363Z,5.47
2017-08-16T09:58:31.661Z,6.10
2017-08-16T10:00:57.962Z,4.40
2017-08-16T10:03:24.245Z,4.50
2017-08-16T10:05:50.886Z,5.53
2017-08-16T10:08:17.167Z,5.07
2017-08-16T10:10:43.471Z,5.10
2017-08-16T10:13:09.795Z,4.47
2017-08-16T10:15:36.064Z,4.73
2017-08-16T10:18:02.707Z,4.83
2017-08-16T10:20:28.994Z,4.60
2017-08-16T10:22:55.277Z,4.93
2017-08-16T10:25:21.580Z,4.50
2017-08-16T10:27:47.856Z,4.67
2017-08-16T10:30:14.150Z,4.40
2017-08-16T10:32:40.450Z,4.80
2017-08-16T10:35:06.747Z,6.80
2017-08-16T10:37:33.040Z,4.67
2017-08-16T10:39:59.319Z,4.70
2017-08-16T10:42:25.606Z,4.43
2017-08-16T10:44:51.919Z,4.93
2017-08-16T10:47:18.205Z,4.80
2017-08-16T10:49:44.502Z,4.67
2017-08-16T10:52:10.770Z,4.37
2017-08-16T10:54:37.067Z,4.93
2017-08-16T10:57:03.342Z,4.80
2017-08-16T10:59:29.953Z,4.53
2017-08-16T11:01:56.208Z,4.27
2017-08-16T11:04:23.303Z,4.20
2017-08-16T11:06:49.582Z,4.27
2017-08-16T11:09:15.919Z,4.50
2017-08-16T11:11:42.196Z,5.10
2017-08-16T11:14:08.923Z,4.90
2017-08-16T11:16:35.564Z,4.77
2017-08-16T11:19:01.875Z,4.80
2017-08-16T11:21:28.164Z,4.57
2017-08-16T11:23:54.548Z,5.00
2017-08-16T11:26:20.872Z,4.40
2017-08-16T11:28:47.177Z,4.67
2017-08-16T11:31:13.488Z,3.87
2017-08-16T11:33:39.825Z,4.57
2017-08-16T11:36:06.474Z,4.40
2017-08-16T11:38:34.014Z,4.53
2017-08-16T11:41:00.667Z,4.40
2017-08-16T11:43:27.243Z,4.57
2017-08-16T11:45:53.591Z,4.13
2017-08-16T11:48:19.883Z,4.50
2017-08-16T11:50:46.199Z,5.13
2017-08-16T11:53:12.475Z,4.17
2017-08-16T11:55:38.776Z,3.83
2017-08-16T11:58:05.056Z,5.47
2017-08-16T12:00:32.002Z,4.60
2017-08-16T12:02:58.281Z,4.00
2017-08-16T12:05:24.610Z,3.77
2017-08-16T12:07:50.900Z,3.70
2017-08-16T12:10:17.203Z,5.33
2017-08-16T12:12:43.505Z,4.10
2017-08-16T12:15:09.799Z,4.20
2017-08-16T12:17:36.622Z,4.50
2017-08-16T12:20:02.922Z,3.73
2017-08-16T12:22:29.280Z,3.90
2017-08-16T12:24:55.632Z,4.03
2017-08-16T12:27:21.936Z,3.67
2017-08-16T12:29:49.134Z,3.93
2017-08-16T12:32:15.447Z,4.17
2017-08-16T12:34:42.461Z,3.70
2017-08-16T12:37:08.807Z,4.13
2017-08-16T12:39:35.149Z,4.30
2017-08-16T12:42:01.491Z,5.20
2017-08-16T12:44:27.831Z,3.60
2017-08-16T12:46:54.156Z,3.73
2017-08-16T12:49:20.492Z,3.87
2017-08-16T12:51:46.787Z,4.20
2017-08-16T12:54:13.450Z,4.10
2017-08-16T12:56:39.751Z,5.00
2017-08-16T12:59:06.053Z,4.60
2017-08-16T13:01:32.323Z,4.30
2017-08-16T13:03:59.059Z,4.80
2017-08-16T13:06:25.317Z,4.47
2017-08-16T13:08:51.589Z,4.90
2017-08-16T13:11:17.881Z,4.60
2017-08-16T13:13:44.171Z,4.23
2017-08-16T13:16:10.478Z,5.17
2017-08-16T13:18:36.767Z,4.30
2017-08-16T13:21:03.046Z,4.03
2017-08-16T13:23:29.371Z,4.15
2017-08-16T13:25:55.670Z,4.33
2017-08-16T13:28:21.935Z,4.10
2017-08-16T13:30:48.241Z,4.40
2017-08-16T13:33:14.541Z,4.80
2017-08-16T13:35:40.825Z,5.07
2017-08-16T13:38:07.160Z,4.87
2017-08-16T13:40:33.889Z,4.43
2017-08-16T13:43:00.186Z,4.47
2017-08-16T13:45:26.489Z,3.90
2017-08-16T13:47:52.752Z,4.70
2017-08-16T13:50:19.070Z,4.60
2017-08-16T13:52:45.342Z,4.67
2017-08-16T13:55:11.993Z,4.97
2017-08-16T13:57:38.693Z,4.87
2017-08-16T14:00:05.010Z,4.73
2017-08-16T14:02:31.334Z,4.20
2017-08-16T14:04:57.626Z,4.20
2017-08-16T14:07:23.920Z,3.93
2017-08-16T14:09:50.851Z,3.70
2017-08-16T14:12:17.527Z,4.20
2017-08-16T14:14:43.780Z,4.33
2017-08-16T14:17:10.049Z,4.40
2017-08-16T14:19:36.361Z,4.57
2017-08-16T14:22:02.643Z,4.63
2017-08-16T14:24:28.946Z,4.60
2017-08-16T14:26:55.282Z,4.03
2017-08-16T14:29:21.563Z,3.93
2017-08-16T14:31:47.862Z,4.50
2017-08-16T14:34:14.150Z,4.83
2017-08-16T14:36:40.413Z,4.10
2017-08-16T14:39:06.763Z,4.50
2017-08-16T14:41:33.088Z,4.70
2017-08-16T14:43:59.412Z,5.43
2017-08-16T14:46:25.704Z,4.33
2017-08-16T14:48:51.994Z,4.53
2017-08-16T14:51:18.272Z,4.47
2017-08-16T14:53:44.596Z,4.40
2017-08-16T14:56:10.878Z,4.70
2017-08-16T14:58:37.189Z,4.27
2017-08-16T15:01:03.841Z,5.03
2017-08-16T15:03:30.530Z,4.90
2017-08-16T15:05:56.846Z,4.60
2017-08-16T15:08:23.766Z,4.17
2017-08-16T15:10:50.062Z,5.00
2017-08-16T15:13:16.363Z,4.63
2017-08-16T15:15:42.697Z,5.33
2017-08-16T15:18:08.994Z,6.33
2017-08-16T15:20:35.269Z,5.70
2017-08-16T15:23:01.573Z,4.80
2017-08-16T15:25:27.909Z,6.13
2017-08-16T15:27:54.165Z,4.70
2017-08-16T15:30:20.451Z,5.83
2017-08-16T15:32:46.732Z,4.80
2017-08-16T15:35:13.099Z,4.30
2017-08-16T15:37:39.622Z,5.03
2017-08-16T15:40:05.914Z,4.03
2017-08-16T15:42:32.208Z,4.57
2017-08-16T15:44:58.501Z,4.27
2017-08-16T15:47:24.803Z,6.83
2017-08-16T15:49:51.078Z,4.90
2017-08-16T15:52:17.389Z,5.33
2017-08-16T15:54:43.686Z,5.37
2017-08-16T15:57:09.978Z,4.80
2017-08-16T15:59:36.291Z,4.67
2017-08-16T16:02:02.584Z,5.00
2017-08-16T16:04:28.880Z,5.20
2017-08-16T16:06:55.174Z,4.27
2017-08-16T16:09:21.453Z,4.50
2017-08-16T16:11:47.807Z,5.77
2017-08-16T16:14:14.081Z,4.67
2017-08-16T16:16:40.369Z,5.03
2017-08-16T16:19:06.675Z,5.27
2017-08-16T16:21:33.032Z,5.40
2017-08-16T16:23:59.299Z,5.57
2017-08-16T16:26:25.600Z,4.97
2017-08-16T16:28:51.925Z,4.77
2017-08-16T16:31:18.612Z,6.57
2017-08-16T16:33:44.907Z,4.60
2017-08-16T16:36:11.452Z,5.13
2017-08-16T16:38:37.772Z,5.90
2017-08-16T16:41:04.052Z,5.07
2017-08-16T16:43:30.364Z,5.20
2017-08-16T16:45:56.660Z,5.97
2017-08-16T16:48:22.947Z,5.60
2017-08-16T16:50:49.220Z,4.90
2017-08-16T16:53:15.559Z,5.23
2017-08-16T16:55:41.842Z,5.97
2017-08-16T16:58:08.140Z,5.90
2017-08-16T17:00:34.428Z,6.00
2017-08-16T17:03:00.724Z,5.03
2017-08-16T17:05:26.993Z,6.30
2017-08-16T17:07:53.293Z,6.17
2017-08-16T17:10:19.538Z,6.17
2017-08-16T17:12:45.823Z,6.20
2017-08-16T17:15:12.099Z,7.07
2017-08-16T17:17:38.418Z,6.70
2017-08-16T17:20:04.692Z,6.33
2017-08-16T17:22:30.966Z,6.17
2017-08-16T17:24:57.253Z,6.20
2017-08-16T17:27:24.462Z,5.93
2017-08-16T17:29:50.759Z,6.20
2017-08-16T17:32:17.057Z,6.43
2017-08-16T17:34:43.366Z,6.50
2017-08-16T17:37:10.041Z,6.87
2017-08-16T17:39:36.383Z,8.40
2017-08-16T17:42:02.674Z,6.40
2017-08-16T17:44:29.351Z,6.30
2017-08-16T17:46:55.638Z,5.70
2017-08-16T17:49:21.933Z,6.50
2017-08-16T17:51:48.203Z,5.70
2017-08-16T17:54:14.514Z,6.00
2017-08-16T17:56:40.824Z,5.83
2017-08-16T17:59:07.112Z,6.50
2017-08-16T18:01:33.430Z,6.73
2017-08-16T18:03:59.747Z,5.90
2017-08-16T18:06:26.049Z,6.40
2017-08-16T18:08:52.329Z,6.57
2017-08-16T18:11:18.616Z,6.77
2017-08-16T18:13:44.903Z,6.83
2017-08-16T18:16:11.299Z,7.10
2017-08-16T18:18:38.382Z,6.50
2017-08-16T18:21:04.712Z,5.90
2017-08-16T18:23:31.017Z,5.53
2017-08-16T18:25:57.292Z,7.37
2017-08-16T18:28:23.607Z,8.50
2017-08-16T18:30:49.906Z,7.07
2017-08-16T18:33:16.164Z,6.70
2017-08-16T18:35:42.479Z,7.67
2017-08-16T18:38:08.769Z,8.50
2017-08-16T18:40:36.382Z,10.43
2017-08-16T18:43:02.687Z,8.90
2017-08-16T18:45:29.928Z,8.70
2017-08-16T18:47:56.195Z,8.50
2017-08-16T18:50:22.882Z,8.33
2017-08-16T18:52:49.167Z,8.23
2017-08-16T18:55:16.468Z,7.60
2017-08-16T18:57:42.738Z,8.13
2017-08-16T19:00:09.025Z,7.63
2017-08-16T19:02:35.403Z,9.00
2017-08-16T19:05:01.708Z,9.33
2017-08-16T19:07:28.072Z,8.80
2017-08-16T19:09:54.332Z,8.30
2017-08-16T19:12:20.953Z,8.70
2017-08-16T19:14:47.297Z,9.13
2017-08-16T19:17:13.582Z,9.13
2017-08-16T19:19:40.831Z,9.13
2017-08-16T19:22:07.976Z,8.33
2017-08-16T19:24:34.253Z,9.43
2017-08-16T19:27:00.548Z,10.07
2017-08-16T19:29:26.837Z,10.30
2017-08-16T19:31:53.180Z,8.67
2017-08-16T19:34:19.828Z,9.10
2017-08-16T19:36:46.132Z,9.47
2017-08-16T19:39:12.407Z,8.33
2017-08-16T19:41:38.738Z,8.70
2017-08-16T19:44:05.032Z,8.37
2017-08-16T19:46:31.310Z,11.73
2017-08-16T19:48:57.641Z,8.67
2017-08-16T19:51:23.944Z,8.77
2017-08-16T19:53:50.257Z,10.10
2017-08-16T19:56:16.567Z,9.03
2017-08-16T19:58:43.829Z,9.53
2017-08-16T20:01:10.167Z,8.73
2017-08-16T20:03:36.840Z,9.97
2017-08-16T20:06:03.150Z,9.40
2017-08-16T20:08:29.462Z,10.13
2017-08-16T20:10:55.781Z,10.00
2017-08-16T20:13:22.103Z,9.33
2017-08-16T20:15:48.423Z,10.00
2017-08-16T20:18:14.709Z,9.60
2017-08-16T20:20:41.052Z,8.77
2017-08-16T20:23:07.355Z,7.10
2017-08-16T20:25:33.666Z,8.50
2017-08-16T20:28:00.331Z,7.97
2017-08-16T20:30:26.625Z,10.27
2017-08-16T20:32:52.933Z,8.40
2017-08-16T20:35:20.180Z,8.40
2017-08-16T20:37:46.647Z,8.80
2017-08-16T20:40:13.327Z,8.50
2017-08-16T20:42:40.697Z,8.80
2017-08-16T20:45:07.359Z,9.63
2017-08-16T20:47:33.618Z,9.47
2017-08-16T20:50:00.249Z,8.20
2017-08-16T20:52:27.468Z,8.60
2017-08-16T20:54:53.735Z,9.10
2017-08-16T20:57:20.433Z,8.40
2017-08-16T20:59:46.727Z,9.43
2017-08-16T21:02:13.867Z,10.13
2017-08-16T21:04:40.617Z,9.30
2017-08-16T21:07:06.923Z,8.67
2017-08-16T21:09:33.571Z,7.93
2017-08-16T21:11:59.859Z,9.63
2017-08-16T21:14:26.143Z,9.23
2017-08-16T21:16:52.458Z,10.53
2017-08-16T21:19:18.799Z,9.13
2017-08-16T21:21:45.108Z,10.80
2017-08-16T21:24:11.413Z,9.33
2017-08-16T21:26:37.790Z,10.50
2017-08-16T21:29:04.053Z,10.73
2017-08-16T21:31:30.372Z,11.70
2017-08-16T21:33:56.673Z,13.70
2017-08-16T21:36:22.943Z,10.83
2017-08-16T21:38:49.625Z,10.13
2017-08-16T21:41:15.894Z,10.87
2017-08-16T21:43:42.201Z,10.50
2017-08-16T21:46:08.500Z,10.70
2017-08-16T21:48:34.804Z,12.00
2017-08-16T21:51:01.833Z,11.40
2017-08-16T21:53:28.131Z,11.60
2017-08-16T21:55:54.393Z,10.93
2017-08-16T21:58:20.702Z,10.70
2017-08-16T22:00:46.967Z,10.77
2017-08-16T22:03:13.525Z,9.97
2017-08-16T22:05:39.800Z,10.53
2017-08-16T22:08:06.079Z,11.67
2017-08-16T22:10:32.400Z,10.80
2017-08-16T22:12:58.686Z,10.67
2017-08-16T22:15:24.990Z,10.03
2017-08-16T22:17:51.676Z,10.23
2017-08-16T22:20:17.986Z,11.90
2017-08-16T22:22:44.284Z,10.10
2017-08-16T22:25:10.590Z,10.27
2017-08-16T22:27:36.864Z,10.93
2017-08-16T22:30:03.148Z,11.47
2017-08-16T22:32:29.434Z,10.37
2017-08-16T22:34:55.735Z,11.67
2017-08-16T22:37:22.028Z,10.47
2017-08-16T22:39:48.300Z,10.50
2017-08-16T22:42:14.578Z,9.80
2017-08-16T22:44:40.857Z,10.83
2017-08-16T22:47:07.140Z,10.27
2017-08-16T22:49:33.446Z,9.47
2017-08-16T22:51:59.707Z,11.23
2017-08-16T22:54:26.016Z,11.80
2017-08-16T22:56:52.289Z,10.23
2017-08-16T22:59:19.953Z,10.50
2017-08-16T23:01:47.415Z,9.90
2017-08-16T23:04:13.816Z,11.53
2017-08-16T23:06:40.106Z,11.53
2017-08-16T23:09:06.389Z,11.30
2017-08-16T23:11:32.644Z,11.00
2017-08-16T23:13:58.919Z,11.50
2017-08-16T23:16:25.201Z,11.10
2017-08-16T23:18:51.860Z,11.10
2017-08-16T23:21:18.133Z,11.87
2017-08-16T23:23:44.421Z,11.43
2017-08-16T23:26:10.681Z,11.97
2017-08-16T23:28:36.929Z,12.67
2017-08-16T23:31:03.217Z,11.37
2017-08-16T23:33:29.493Z,10.87
2017-08-16T23:35:55.787Z,12.40
2017-08-16T23:38:22.061Z,12.77
2017-08-16T23:40:54.314Z,12.37
2017-08-16T23:43:20.588Z,11.87
2017-08-16T23:45:46.879Z,11.90
2017-08-16T23:48:13.175Z,11.27
2017-08-16T23:50:39.448Z,13.67
2017-08-16T23:53:05.732Z,12.07
2017-08-16T23:55:32.024Z,13.10
2017-08-16T23:57:58.297Z,13.23
